Time;durP1;ratioP1;P1;durP2;ratioP2;P2;SDS_P1;SDS_P2;PMS_P1;PMS_P2;Temp;Humidity;BMP_temperature;BMP_pressure;BME280_temperature;BME280_humidity;BME280_pressure;Samples;Min_cycle;Max_cycle;Signal;HPM_P1;HPM_P2
2021/03/20 00:01:03;;;;;;;8.83;7.93;;;4.80;32.20;;;;;;5072423;28;20401;-73
2021/03/20 00:03:29;;;;;;;8.40;7.70;;;4.80;32.30;;;;;;5072290;28;20840;-72
2021/03/20 00:05:55;;;;;;;6.50;5.90;;;4.90;32.50;;;;;;5072198;28;20501;-73
2021/03/20 00:08:22;;;;;;;8.03;7.23;;;5.20;31.70;;;;;;5071993;28;20177;-73
2021/03/20 00:10:48;;;;;;;7.33;6.73;;;5.20;31.70;;;;;;5072189;28;20405;-75
2021/03/20 00:13:15;;;;;;;7.90;7.23;;;5.20;31.20;;;;;;5071919;28;20486;-73
2021/03/20 00:15:40;;;;;;;7.23;6.70;;;5.20;31.20;;;;;;5070263;28;20416;-73
2021/03/20 00:18:06;;;;;;;8.30;7.47;;;5.20;31.00;;;;;;5071536;28;20772;-72
2021/03/20 00:20:37;;;;;;;8.93;8.10;;;5.20;31.10;;;;;;5072131;28;20657;-73
2021/03/20 00:23:03;;;;;;;6.30;5.70;;;5.00;31.50;;;;;;5071922;28;20187;-73
2021/03/20 00:25:28;;;;;;;6.60;5.93;;;4.90;32.10;;;;;;5072031;28;20446;-72
2021/03/20 00:27:56;;;;;;;7.87;7.07;;;4.80;32.80;;;;;;5071850;28;20686;-74
2021/03/20 00:30:21;;;;;;;7.10;6.40;;;4.80;32.30;;;;;;5072027;28;20168;-73
2021/03/20 00:32:47;;;;;;;6.40;5.80;;;4.70;33.00;;;;;;5071980;28;20432;-73
2021/03/20 00:35:15;;;;;;;7.40;6.70;;;4.70;33.20;;;;;;5071930;28;20445;-74
2021/03/20 00:37:41;;;;;;;7.27;6.57;;;4.50;33.20;;;;;;5071523;28;20214;-73
2021/03/20 00:40:10;;;;;;;6.27;5.67;;;4.60;34.30;;;;;;5071731;28;20399;-74
2021/03/20 00:42:36;;;;;;;6.93;6.27;;;4.40;34.60;;;;;;5071434;28;20206;-73
2021/03/20 00:45:03;;;;;;;8.00;7.30;;;4.10;35.40;;;;;;5071630;28;20413;-73
2021/03/20 00:47:29;;;;;;;8.67;6.80;;;4.50;34.60;;;;;;5071381;28;20179;-73
2021/03/20 00:49:54;;;;;;;5.80;5.23;;;4.60;34.70;;;;;;5071573;28;20418;-73
2021/03/20 00:52:20;;;;;;;7.03;6.33;;;4.70;34.30;;;;;;5071433;28;20249;-73
2021/03/20 00:54:45;;;;;;;7.93;6.80;;;4.70;33.70;;;;;;5071300;28;20645;-73
2021/03/20 00:57:11;;;;;;;6.77;6.10;;;4.20;34.80;;;;;;5071228;28;20195;-75
2021/03/20 00:59:37;;;;;;;7.03;5.73;;;4.10;35.20;;;;;;5071285;28;20176;-72
2021/03/20 01:02:03;;;;;;;6.17;5.37;;;4.10;35.60;;;;;;5071304;28;20199;-74
2021/03/20 01:04:28;;;;;;;7.57;6.87;;;4.40;35.40;;;;;;5071219;28;20807;-73
2021/03/20 01:06:54;;;;;;;7.30;6.60;;;4.50;35.10;;;;;;5071187;28;20175;-73
2021/03/20 01:09:19;;;;;;;7.13;6.43;;;4.70;35.10;;;;;;5070930;28;20175;-73
2021/03/20 01:11:45;;;;;;;6.50;5.90;;;4.80;34.20;;;;;;5070961;28;20223;-73
2021/03/20 01:14:11;;;;;;;8.03;6.87;;;4.90;33.00;;;;;;5071054;28;20225;-73
2021/03/20 01:16:36;;;;;;;6.23;5.50;;;5.10;32.90;;;;;;5071082;28;20177;-73
2021/03/20 01:19:03;;;;;;;6.00;5.57;;;5.00;33.30;;;;;;5070955;28;20656;-72
2021/03/20 01:21:28;;;;;;;7.13;6.43;;;4.90;33.40;;;;;;5070820;28;20171;-73
2021/03/20 01:23:54;;;;;;;6.53;5.93;;;4.90;33.00;;;;;;5070887;28;20463;-73
2021/03/20 01:26:20;;;;;;;7.37;6.20;;;4.90;33.40;;;;;;5070865;28;20182;-74
2021/03/20 01:28:46;;;;;;;6.97;6.30;;;5.10;33.00;;;;;;5070572;28;20167;-74
2021/03/20 01:31:13;;;;;;;8.60;6.57;;;5.10;32.60;;;;;;5070739;28;20409;-73
2021/03/20 01:33:38;;;;;;;7.47;6.77;;;5.00;33.10;;;;;;5069819;28;20539;-72
2021/03/20 01:36:05;;;;;;;7.27;6.57;;;5.20;32.70;;;;;;5070764;28;20401;-74
2021/03/20 01:38:31;;;;;;;6.60;6.00;;;4.90;33.10;;;;;;5070854;28;20190;-72
2021/03/20 01:41:00;;;;;;;9.80;7.20;;;4.60;34.00;;;;;;5070808;28;20418;-73
2021/03/20 01:43:27;;;;;;;7.57;6.80;;;4.80;34.00;;;;;;5070672;28;20596;-74
2021/03/20 01:45:54;;;;;;;7.50;6.80;;;4.80;33.40;;;;;;5070740;28;20409;-73
2021/03/20 01:48:28;;;;;;;7.50;6.80;;;4.80;33.60;;;;;;5070709;28;20409;-73
2021/03/20 01:51:00;;;;;;;7.20;6.50;;;4.90;33.70;;;;;;5070760;28;20414;-73
2021/03/20 01:53:43;;;;;;;7.60;6.90;;;5.10;33.00;;;;;;5070608;28;20985;-73
2021/03/20 01:56:18;;;;;;;7.40;6.60;;;5.00;33.50;;;;;;5070765;28;20427;-74
2021/03/20 01:58:46;;;;;;;7.10;6.50;;;5.10;33.50;;;;;;5070510;28;20488;-74
2021/03/20 02:01:17;;;;;;;6.47;5.87;;;4.90;33.70;;;;;;5070427;28;20496;-73
2021/03/20 02:03:43;;;;;;;7.50;6.80;;;4.90;33.90;;;;;;5070544;28;20412;-73
2021/03/20 02:06:10;;;;;;;7.57;6.80;;;4.90;33.70;;;;;;5070694;28;20437;-72
2021/03/20 02:08:38;;;;;;;7.40;6.70;;;4.80;34.30;;;;;;5070547;28;20474;-72
2021/03/20 02:11:21;;;;;;;6.47;5.97;;;4.60;34.30;;;;;;5070541;28;20409;-73
2021/03/20 02:14:10;;;;;;;7.50;6.80;;;4.80;34.80;;;;;;5070611;28;20445;-73
2021/03/20 02:16:49;;;;;;;7.90;7.10;;;4.80;34.70;;;;;;5051106;28;20772;-73
2021/03/20 02:19:23;;;;;;;7.50;6.80;;;4.90;34.70;;;;;;5070491;28;20930;-72
2021/03/20 02:21:57;;;;;;;6.67;6.03;;;4.80;34.60;;;;;;5070867;28;20432;-73
2021/03/20 02:25:00;;;;;;;8.10;7.30;;;4.90;34.20;;;;;;5070770;28;20460;-74
2021/03/20 02:27:41;;;;;;;7.03;6.43;;;4.80;34.20;;;;;;5070516;28;20508;-72
2021/03/20 02:30:40;;;;;;;7.17;6.50;;;4.90;34.50;;;;;;5070700;28;21131;-73
2021/03/20 02:33:36;;;;;;;7.67;6.93;;;5.00;33.90;;;;;;5070575;28;20429;-73
2021/03/20 02:36:26;;;;;;;7.40;6.70;;;5.00;34.00;;;;;;5070560;28;20771;-73
2021/03/20 02:39:16;;;;;;;9.57;8.20;;;5.00;34.10;;;;;;5070025;28;20509;-73
2021/03/20 02:41:57;;;;;;;7.13;6.43;;;5.00;34.70;;;;;;5073869;28;20429;-72
2021/03/20 02:44:31;;;;;;;7.13;6.47;;;4.80;34.20;;;;;;5073864;28;20405;-73
2021/03/20 02:47:00;;;;;;;7.03;6.43;;;4.60;35.40;;;;;;5073722;28;20406;-74
2021/03/20 02:49:53;;;;;;;7.77;7.07;;;4.80;35.40;;;;;;5073604;28;20409;-73
2021/03/20 02:52:41;;;;;;;8.63;7.83;;;4.70;35.70;;;;;;5073589;28;20441;-73
2021/03/20 02:55:08;;;;;;;7.00;6.40;;;4.60;35.70;;;;;;5073618;28;20501;-72
2021/03/20 02:57:56;;;;;;;7.77;6.97;;;4.50;36.30;;;;;;5073572;28;20783;-71
2021/03/20 03:00:28;;;;;;;8.13;7.37;;;4.50;36.20;;;;;;5073583;28;20448;-72
2021/03/20 03:02:56;;;;;;;7.10;6.40;;;4.60;37.00;;;;;;5072288;28;20449;-73
2021/03/20 03:05:28;;;;;;;8.87;7.77;;;4.60;36.70;;;;;;5073611;28;20441;-72
2021/03/20 03:08:21;;;;;;;7.00;6.40;;;4.70;36.90;;;;;;5073557;28;20773;-73
2021/03/20 03:10:56;;;;;;;9.07;7.47;;;4.80;36.90;;;;;;5061116;28;20858;-73
2021/03/20 03:13:27;;;;;;;7.57;6.97;;;4.30;37.70;;;;;;5073219;28;20502;-73
2021/03/20 03:16:07;;;;;;;8.30;6.83;;;4.70;39.70;;;;;;5073295;28;20451;-73
2021/03/20 03:18:42;;;;;;;7.20;6.50;;;5.00;37.30;;;;;;5072940;28;20441;-72
2021/03/20 03:24:31;;;;;;;8.10;7.30;;;4.70;36.70;;;;;;5073008;28;20405;-72
2021/03/20 03:27:04;;;;;;;7.47;6.77;;;4.60;37.40;;;;;;5073122;28;20451;-73
2021/03/20 03:29:33;;;;;;;7.67;6.97;;;4.70;37.30;;;;;;5073222;28;20466;-71
2021/03/20 03:32:17;;;;;;;7.00;6.40;;;4.60;38.50;;;;;;5073098;28;20970;-72
2021/03/20 03:35:08;;;;;;;8.37;7.57;;;4.70;38.30;;;;;;5073101;28;20453;-73
2021/03/20 03:37:56;;;;;;;7.73;6.93;;;4.80;37.50;;;;;;5072612;28;20494;-72
2021/03/20 03:40:43;;;;;;;7.83;7.13;;;4.80;37.20;;;;;;5071668;28;20428;-73
2021/03/20 03:43:09;;;;;;;7.30;6.43;;;4.90;37.10;;;;;;5072654;28;20436;-72
2021/03/20 03:45:36;;;;;;;7.20;6.50;;;4.80;37.20;;;;;;5072616;28;20494;-72
2021/03/20 03:48:03;;;;;;;7.57;6.77;;;4.60;37.20;;;;;;5072442;28;20409;-74
2021/03/20 03:50:36;;;;;;;8.13;7.43;;;4.60;38.20;;;;;;5072525;28;20479;-71
2021/03/20 03:53:04;;;;;;;7.47;6.67;;;4.50;38.20;;;;;;5072534;28;20427;-73
2021/03/20 03:55:32;;;;;;;7.37;6.70;;;4.50;38.60;;;;;;5072462;28;20412;-73
2021/03/20 03:57:57;;;;;;;7.63;7.03;;;4.60;38.60;;;;;;5072295;28;20409;-73
2021/03/20 04:00:37;;;;;;;7.50;6.90;;;4.70;38.20;;;;;;5072328;28;20741;-72
2021/03/20 04:03:24;;;;;;;7.63;6.93;;;4.60;38.80;;;;;;5072288;28;20214;-73
2021/03/20 04:06:05;;;;;;;7.97;7.20;;;4.60;38.50;;;;;;5072308;28;20402;-72
2021/03/20 04:08:53;;;;;;;8.17;7.50;;;4.60;38.10;;;;;;5072105;28;20405;-72
2021/03/20 04:11:21;;;;;;;7.50;6.90;;;4.50;38.40;;;;;;5072097;28;20447;-74
2021/03/20 04:14:09;;;;;;;6.60;6.03;;;4.40;38.30;;;;;;5072175;28;20669;-73
2021/03/20 04:16:49;;;;;;;7.80;7.20;;;4.60;38.10;;;;;;5070841;28;20452;-73
2021/03/20 04:19:18;;;;;;;8.60;7.70;;;4.80;38.40;;;;;;5071830;28;20474;-74
2021/03/20 04:21:54;;;;;;;7.87;7.27;;;4.90;37.50;;;;;;5071890;28;20524;-73
2021/03/20 04:24:29;;;;;;;8.63;7.50;;;4.70;37.80;;;;;;5071894;28;20417;-72
2021/03/20 04:27:09;;;;;;;8.30;7.60;;;4.90;38.40;;;;;;5070654;28;20453;-73
2021/03/20 04:30:02;;;;;;;10.80;8.80;;;4.90;37.60;;;;;;5071828;28;20420;-73
2021/03/20 04:32:35;;;;;;;8.40;7.60;;;4.90;38.10;;;;;;5070367;28;20437;-73
2021/03/20 04:35:08;;;;;;;8.37;7.67;;;4.90;37.50;;;;;;5071655;28;20533;-72
2021/03/20 04:37:39;;;;;;;10.07;7.60;;;4.80;37.70;;;;;;5071478;28;20790;-74
2021/03/20 04:40:09;;;;;;;9.53;8.53;;;4.80;37.70;;;;;;5071827;28;20823;-73
2021/03/20 04:42:37;;;;;;;8.30;7.50;;;4.80;37.80;;;;;;5071611;28;20452;-73
2021/03/20 04:45:28;;;;;;;7.67;7.00;;;4.90;38.50;;;;;;5071607;28;20414;-73
2021/03/20 04:47:56;;;;;;;9.33;8.43;;;4.80;37.40;;;;;;5071390;28;20772;-73
2021/03/20 04:50:27;;;;;;;7.03;6.43;;;4.70;38.20;;;;;;5071552;28;20484;-73
2021/03/20 04:52:55;;;;;;;7.90;7.20;;;4.70;37.80;;;;;;5071447;28;20444;-73
2021/03/20 04:55:21;;;;;;;8.50;7.70;;;4.80;37.60;;;;;;5071524;28;20460;-72
2021/03/20 04:57:56;;;;;;;7.63;7.00;;;4.90;37.40;;;;;;5071223;28;20428;-73
2021/03/20 05:00:42;;;;;;;8.43;7.80;;;4.60;37.70;;;;;;5071338;28;20534;-73
2021/03/20 05:03:27;;;;;;;7.80;7.10;;;4.70;38.20;;;;;;5070716;28;20789;-73
2021/03/20 05:05:59;;;;;;;8.43;7.07;;;4.70;38.00;;;;;;5071262;28;20405;-74
2021/03/20 05:08:34;;;;;;;8.00;7.20;;;4.80;38.30;;;;;;5071042;28;20404;-73
2021/03/20 05:11:08;;;;;;;8.47;7.77;;;4.90;37.60;;;;;;5071148;28;20420;-72
2021/03/20 05:13:40;;;;;;;8.17;7.43;;;4.90;38.10;;;;;;5070955;28;20452;-73
2021/03/20 05:16:17;;;;;;;9.43;8.53;;;4.80;37.20;;;;;;5070979;28;20398;-71
2021/03/20 05:18:49;;;;;;;6.70;6.20;;;4.80;37.90;;;;;;5069558;28;20417;-73
2021/03/20 05:21:21;;;;;;;9.93;7.43;;;4.90;38.00;;;;;;5069529;28;20418;-72
2021/03/20 05:23:48;;;;;;;7.93;7.23;;;4.80;38.20;;;;;;5070878;28;20916;-73
2021/03/20 05:26:13;;;;;;;8.47;7.70;;;4.90;37.40;;;;;;5070950;28;21083;-73
2021/03/20 05:28:40;;;;;;;8.13;7.40;;;5.00;37.00;;;;;;5070740;28;20504;-73
2021/03/20 05:31:06;;;;;;;7.87;7.17;;;4.90;37.50;;;;;;5070977;28;20179;-73
2021/03/20 05:33:33;;;;;;;7.97;7.27;;;4.70;37.40;;;;;;5070876;28;20453;-74
2021/03/20 05:35:59;;;;;;;7.87;7.13;;;4.70;38.40;;;;;;5070906;28;20406;-72
2021/03/20 05:38:25;;;;;;;7.90;7.13;;;4.70;37.50;;;;;;5070614;28;20437;-72
2021/03/20 05:41:03;;;;;;;7.83;7.10;;;4.70;38.20;;;;;;5070903;28;20410;-73
2021/03/20 05:43:56;;;;;;;8.00;7.33;;;4.60;38.10;;;;;;5070784;28;20466;-72
2021/03/20 05:46:32;;;;;;;7.20;6.60;;;4.70;38.20;;;;;;5069563;28;20429;-73
2021/03/20 05:49:30;;;;;;;6.60;6.00;;;4.70;37.30;;;;;;5070794;28;20768;-73
2021/03/20 05:52:40;;;;;;;8.27;7.60;;;4.80;37.20;;;;;;5069546;28;21021;-74
2021/03/20 05:55:18;;;;;;;7.83;7.20;;;4.60;38.10;;;;;;5028424;28;20471;-72
2021/03/20 05:57:55;;;;;;;7.83;7.20;;;4.70;38.30;;;;;;5065377;28;20414;-71
2021/03/20 06:00:31;;;;;;;7.50;6.90;;;4.50;38.00;;;;;;5069667;28;20868;-73
2021/03/20 06:03:08;;;;;;;8.30;7.17;;;4.50;38.00;;;;;;5070614;28;20432;-72
2021/03/20 06:05:53;;;;;;;9.30;8.50;;;4.60;38.10;;;;;;5070667;28;20888;-72
2021/03/20 06:08:44;;;;;;;8.77;8.00;;;4.60;37.90;;;;;;5069105;28;20493;-73
2021/03/20 06:11:36;;;;;;;7.07;6.47;;;4.70;37.10;;;;;;5069335;28;20406;-74
2021/03/20 06:14:21;;;;;;;6.73;6.13;;;4.80;36.20;;;;;;5069420;28;20457;-73
2021/03/20 06:17:07;;;;;;;6.53;6.03;;;4.90;36.30;;;;;;5073787;28;20438;-71
2021/03/20 06:19:45;;;;;;;7.80;7.20;;;4.80;36.40;;;;;;5073773;28;20421;-72
2021/03/20 06:22:45;;;;;;;7.40;6.73;;;4.70;36.50;;;;;;5074251;28;20430;-73
2021/03/20 06:25:18;;;;;;;6.93;6.27;;;4.70;35.40;;;;;;5057847;28;20746;-73
2021/03/20 06:27:48;;;;;;;5.83;5.33;;;4.70;35.80;;;;;;5072740;28;20417;-72
2021/03/20 06:30:40;;;;;;;7.60;6.90;;;4.70;36.10;;;;;;5074061;28;20405;-72
2021/03/20 06:33:31;;;;;;;7.63;6.83;;;4.70;36.60;;;;;;5073986;28;20420;-72
2021/03/20 06:36:03;;;;;;;6.37;5.77;;;4.80;35.50;;;;;;5072737;28;20517;-73
2021/03/20 06:38:43;;;;;;;7.10;6.60;;;4.50;36.40;;;;;;5073737;28;20413;-72
2021/03/20 06:42:01;;;;;;;6.17;5.57;;;4.60;36.20;;;;;;5074205;28;20757;-71
2021/03/20 06:44:55;;;;;;;5.70;5.20;;;4.60;35.10;;;;;;5061124;28;20524;-72
2021/03/20 06:47:27;;;;;;;6.20;5.77;;;4.60;35.30;;;;;;5058096;28;20421;-73
2021/03/20 06:50:16;;;;;;;7.67;7.13;;;4.60;34.70;;;;;;5073731;28;20413;-72
2021/03/20 06:52:41;;;;;;;6.83;6.03;;;4.50;35.00;;;;;;5073625;28;20436;-73
2021/03/20 06:55:18;;;;;;;5.07;4.67;;;4.70;34.50;;;;;;5073640;28;20445;-72
2021/03/20 06:57:46;;;;;;;4.77;4.40;;;4.80;34.20;;;;;;5073576;28;20171;-73
2021/03/20 07:00:26;;;;;;;4.37;4.00;;;4.60;30.50;;;;;;5073541;28;20759;-74
2021/03/20 07:03:16;;;;;;;3.70;3.47;;;4.60;31.70;;;;;;5073432;28;20421;-73
2021/03/20 07:05:50;;;;;;;5.03;4.53;;;4.80;31.10;;;;;;5072212;28;20414;-72
2021/03/20 07:08:24;;;;;;;5.10;4.70;;;4.80;30.50;;;;;;5073264;28;20417;-74
2021/03/20 07:10:53;;;;;;;4.87;4.33;;;4.70;30.50;;;;;;5073380;28;20492;-72
2021/03/20 07:13:23;;;;;;;4.30;4.00;;;4.60;30.50;;;;;;5073158;28;20913;-73
2021/03/20 07:16:04;;;;;;;5.10;4.60;;;4.70;30.00;;;;;;5073277;28;20409;-72
2021/03/20 07:18:36;;;;;;;4.33;4.03;;;4.70;29.20;;;;;;5073146;28;20413;-72
2021/03/20 07:21:17;;;;;;;5.13;4.73;;;4.60;29.10;;;;;;5073301;28;20401;-72
2021/03/20 07:23:51;;;;;;;5.00;4.03;;;4.60;28.70;;;;;;5073022;28;20508;-73
2021/03/20 07:26:17;;;;;;;4.70;4.30;;;4.40;29.20;;;;;;5071635;28;20418;-73
2021/03/20 07:28:52;;;;;;;4.83;4.40;;;4.50;29.70;;;;;;5071112;28;20405;-72
2021/03/20 07:31:19;;;;;;;4.90;4.50;;;4.60;28.70;;;;;;5070286;28;20171;-72
2021/03/20 07:33:47;;;;;;;6.10;5.50;;;4.60;29.10;;;;;;5072221;28;20473;-72
2021/03/20 07:36:37;;;;;;;5.07;4.67;;;4.40;29.60;;;;;;5072481;28;20966;-72
2021/03/20 07:39:07;;;;;;;5.30;4.90;;;4.60;29.20;;;;;;5072180;28;20425;-74
2021/03/20 07:41:47;;;;;;;11.93;6.50;;;4.70;29.00;;;;;;5072583;28;20422;-72
2021/03/20 07:44:12;;;;;;;5.00;4.50;;;4.70;30.00;;;;;;5071471;28;20472;-72
2021/03/20 07:46:39;;;;;;;5.67;5.27;;;4.70;28.60;;;;;;5071427;28;20939;-72
2021/03/20 07:49:16;;;;;;;4.83;4.43;;;4.70;28.60;;;;;;5072412;28;20175;-71
2021/03/20 07:51:54;;;;;;;7.23;5.00;;;4.70;28.60;;;;;;5072576;28;20453;-72
2021/03/20 07:54:38;;;;;;;5.73;5.20;;;4.60;27.70;;;;;;5071335;28;20465;-72
2021/03/20 07:57:16;;;;;;;4.30;4.00;;;4.60;28.10;;;;;;5072481;28;20946;-72
2021/03/20 07:59:51;;;;;;;4.97;4.57;;;4.80;28.20;;;;;;5072613;28;20413;-71
2021/03/20 08:02:35;;;;;;;6.40;4.70;;;4.90;27.70;;;;;;5072499;28;20433;-72
2021/03/20 08:05:27;;;;;;;5.00;4.60;;;4.90;27.60;;;;;;5072589;28;20412;-72
2021/03/20 08:07:54;;;;;;;4.97;4.33;;;4.70;25.80;;;;;;5072636;28;20433;-73
2021/03/20 08:10:25;;;;;;;5.10;4.70;;;4.70;26.70;;;;;;5072833;28;20452;-72
2021/03/20 08:13:15;;;;;;;5.53;5.03;;;4.60;26.10;;;;;;5072944;28;20421;-72
2021/03/20 08:15:53;;;;;;;4.50;4.20;;;4.50;26.40;;;;;;5073190;28;20455;-72
2021/03/20 08:18:31;;;;;;;7.80;4.67;;;4.50;26.80;;;;;;5072521;28;20470;-72
2021/03/20 08:21:21;;;;;;;5.50;4.80;;;4.80;28.30;;;;;;5072796;28;20386;-72
2021/03/20 08:24:11;;;;;;;4.37;4.00;;;4.80;26.60;;;;;;5072656;28;20766;-72
2021/03/20 08:26:45;;;;;;;4.27;3.97;;;5.00;26.20;;;;;;5072057;28;20405;-71
2021/03/20 08:29:48;;;;;;;4.40;4.10;;;5.00;23.80;;;;;;5071795;28;20484;-71
2021/03/20 08:32:44;;;;;;;3.57;3.27;;;5.00;25.40;;;;;;5071922;28;21020;-72
2021/03/20 08:35:22;;;;;;;3.57;3.37;;;4.80;22.00;;;;;;5071601;28;20449;-73
2021/03/20 08:37:53;;;;;;;4.00;3.70;;;4.90;22.90;;;;;;5070701;28;20421;-72
2021/03/20 08:40:40;;;;;;;8.20;3.40;;;4.90;23.80;;;;;;5070448;28;20936;-72
2021/03/20 08:43:15;;;;;;;4.50;3.83;;;6.50;36.50;;;;;;5071580;28;20426;-72
2021/03/20 08:45:48;;;;;;;5.30;2.83;;;8.20;33.30;;;;;;5071913;28;20415;-70
2021/03/20 08:48:19;;;;;;;4.00;3.40;;;9.80;39.50;;;;;;5071422;28;20756;-72
2021/03/20 08:51:03;;;;;;;4.40;3.47;;;9.20;33.30;;;;;;5071627;28;20409;-71
2021/03/20 08:53:43;;;;;;;4.07;3.77;;;9.20;27.30;;;;;;5071244;28;20428;-74
2021/03/20 08:56:14;;;;;;;3.30;3.10;;;7.90;18.20;;;;;;5071331;28;20408;-73
2021/03/20 08:58:56;;;;;;;3.40;3.20;;;6.80;18.60;;;;;;5069878;28;20409;-72
2021/03/20 09:01:37;;;;;;;3.57;3.30;;;6.20;19.20;;;;;;5070191;28;20457;-72
2021/03/20 09:04:12;;;;;;;3.40;3.20;;;5.90;19.70;;;;;;5071278;28;20413;-73
2021/03/20 09:06:41;;;;;;;3.53;3.33;;;5.50;19.80;;;;;;5069913;28;20817;-73
2021/03/20 09:09:31;;;;;;;3.57;3.27;;;5.60;20.30;;;;;;5069948;28;20432;-73
2021/03/20 09:12:06;;;;;;;2.90;2.70;;;5.50;19.90;;;;;;5071186;28;20434;-72
2021/03/20 09:14:43;;;;;;;2.90;2.73;;;5.20;19.90;;;;;;5071232;28;20448;-72
2021/03/20 09:17:35;;;;;;;3.40;3.20;;;5.20;19.10;;;;;;5071128;28;20390;-72
2021/03/20 09:20:35;;;;;;;5.27;4.77;;;5.30;20.20;;;;;;5071180;28;20431;-72
2021/03/20 09:23:01;;;;;;;4.53;4.13;;;5.30;20.40;;;;;;5071075;28;20471;-73
2021/03/20 09:25:32;;;;;;;4.73;4.33;;;5.30;21.00;;;;;;5071204;28;20419;-73
2021/03/20 09:28:05;;;;;;;6.10;4.23;;;5.40;21.00;;;;;;5071073;28;20417;-72
2021/03/20 09:30:36;;;;;;;4.50;4.20;;;5.30;21.70;;;;;;5071304;28;20433;-72
2021/03/20 09:33:25;;;;;;;3.77;3.57;;;5.30;21.60;;;;;;5071219;28;20457;-72
2021/03/20 09:35:53;;;;;;;4.30;3.50;;;5.30;21.50;;;;;;5065269;28;20539;-72
2021/03/20 09:38:37;;;;;;;4.07;3.87;;;5.30;21.90;;;;;;5070732;28;20795;-73
2021/03/20 09:41:03;;;;;;;3.93;3.73;;;5.30;19.20;;;;;;5070812;28;20408;-73
2021/03/20 09:43:55;;;;;;;4.50;4.10;;;5.00;19.20;;;;;;5070777;28;20438;-72
2021/03/20 09:46:38;;;;;;;4.13;3.67;;;5.50;20.20;;;;;;5070879;28;20464;-73
2021/03/20 09:49:07;;;;;;;2.97;2.77;;;5.80;18.00;;;;;;5072433;28;20413;-74
2021/03/20 09:51:48;;;;;;;2.90;2.70;;;5.90;16.20;;;;;;5074863;28;20429;-73
2021/03/20 09:54:26;;;;;;;3.00;2.80;;;6.00;15.70;;;;;;5074817;28;20815;-72
2021/03/20 09:59:41;;;;;;;2.27;2.17;;;6.50;13.80;;;;;;5074865;28;20428;-71
2021/03/20 10:02:10;;;;;;;2.67;2.47;;;6.50;11.40;;;;;;5074631;28;20920;-73
2021/03/20 10:04:54;;;;;;;3.10;2.90;;;6.60;12.00;;;;;;5074700;28;20210;-72
2021/03/20 10:07:20;;;;;;;3.30;2.70;;;6.70;12.60;;;;;;5074431;28;20993;-72
2021/03/20 10:10:10;;;;;;;2.97;2.60;;;6.70;13.60;;;;;;5074442;28;20398;-72
2021/03/20 10:12:56;;;;;;;3.00;2.70;;;6.60;13.50;;;;;;5074395;28;20195;-74
2021/03/20 10:15:34;;;;;;;5.10;3.23;;;6.70;13.60;;;;;;5074340;28;20456;-73
2021/03/20 10:18:06;;;;;;;3.30;3.00;;;6.80;14.00;;;;;;5074108;28;20481;-72
2021/03/20 10:20:57;;;;;;;4.63;3.20;;;6.80;13.60;;;;;;5074275;28;20471;-73
2021/03/20 10:23:35;;;;;;;3.27;3.07;;;6.80;12.80;;;;;;5073968;28;21004;-74
2021/03/20 10:26:11;;;;;;;3.47;3.20;;;6.80;13.60;;;;;;5074142;28;20388;-73
2021/03/20 10:28:46;;;;;;;3.03;2.83;;;7.00;15.50;;;;;;5073960;28;20411;-73
2021/03/20 10:31:14;;;;;;;3.40;2.97;;;7.30;13.10;;;;;;5073909;28;20496;-72
2021/03/20 10:33:43;;;;;;;3.20;3.00;;;7.10;13.00;;;;;;5073950;28;20864;-73
2021/03/20 10:36:14;;;;;;;3.37;3.07;;;7.30;13.00;;;;;;5073860;28;20423;-73
2021/03/20 10:38:40;;;;;;;3.60;3.30;;;7.00;13.40;;;;;;5073685;28;20431;-72
2021/03/20 10:41:15;;;;;;;3.67;3.30;;;7.20;14.10;;;;;;5073895;28;20419;-74
2021/03/20 10:43:47;;;;;;;4.30;3.50;;;7.50;14.00;;;;;;5073981;28;20796;-72
2021/03/20 10:46:40;;;;;;;3.50;3.20;;;7.10;13.90;;;;;;5072587;28;20453;-73
2021/03/20 10:49:25;;;;;;;5.10;3.17;;;7.10;14.30;;;;;;5071603;28;20798;-72
2021/03/20 10:51:54;;;;;;;4.00;3.70;;;7.20;13.90;;;;;;5073764;28;20969;-72
2021/03/20 10:54:39;;;;;;;4.03;3.37;;;7.30;14.00;;;;;;5073760;28;20449;-72
2021/03/20 10:57:19;;;;;;;4.57;4.17;;;7.40;12.90;;;;;;5073493;28;20413;-73
2021/03/20 10:59:46;;;;;;;4.50;3.17;;;7.50;13.00;;;;;;5072982;28;20766;-73
2021/03/20 11:02:30;;;;;;;3.83;3.53;;;7.50;14.10;;;;;;5060862;28;20438;-72
2021/03/20 11:05:20;;;;;;;3.40;3.20;;;7.50;13.20;;;;;;5062905;28;20417;-73
2021/03/20 11:07:58;;;;;;;3.17;2.97;;;7.70;14.50;;;;;;5061363;28;20743;-73
2021/03/20 11:10:28;;;;;;;3.57;3.27;;;7.80;13.20;;;;;;5073572;28;20408;-73
2021/03/20 11:12:55;;;;;;;3.30;3.03;;;7.90;13.70;;;;;;5073165;28;20445;-74
2021/03/20 11:15:26;;;;;;;10.63;7.40;;;8.10;12.40;;;;;;5073210;28;20923;-73
2021/03/20 11:17:54;;;;;;;12.73;9.73;;;8.00;12.30;;;;;;5073497;28;20892;-74
2021/03/20 11:20:30;;;;;;;4.33;3.90;;;8.20;11.70;;;;;;5073495;28;20414;-74
2021/03/20 11:22:55;;;;;;;3.37;3.07;;;8.00;13.70;;;;;;5074035;28;20421;-73
2021/03/20 11:25:33;;;;;;;3.20;3.00;;;7.10;12.10;;;;;;5072766;28;20436;-73
2021/03/20 11:28:28;;;;;;;3.43;3.23;;;7.50;13.10;;;;;;5074088;28;20533;-72
2021/03/20 11:30:57;;;;;;;3.53;3.33;;;7.70;12.50;;;;;;5073955;28;20409;-74
2021/03/20 11:33:26;;;;;;;3.40;3.20;;;8.00;12.90;;;;;;5073491;28;20787;-73
2021/03/20 11:35:58;;;;;;;3.33;3.13;;;8.30;12.30;;;;;;5074054;28;20904;-74
2021/03/20 11:38:25;;;;;;;3.80;3.40;;;8.50;11.40;;;;;;5056435;28;20442;-73
2021/03/20 11:41:03;;;;;;;4.03;3.63;;;8.40;11.80;;;;;;5053208;28;20422;-72
2021/03/20 11:43:33;;;;;;;3.63;3.40;;;8.90;11.90;;;;;;5051565;28;20430;-72
2021/03/20 11:46:09;;;;;;;2.83;2.63;;;9.10;11.40;;;;;;5052865;28;20833;-74
2021/03/20 11:48:44;;;;;;;4.67;4.37;;;9.20;11.60;;;;;;5052502;28;20899;-74
2021/03/20 11:51:20;;;;;;;63.20;4.70;;;9.10;10.50;;;;;;5055924;28;20441;-73
2021/03/20 11:53:48;;;;;;;3.63;3.33;;;9.10;11.30;;;;;;5063773;28;20495;-72
2021/03/20 11:56:23;;;;;;;3.33;3.13;;;9.40;11.00;;;;;;5051182;28;20431;-72
2021/03/20 11:58:55;;;;;;;3.43;3.20;;;9.50;10.70;;;;;;5052326;28;20417;-67
2021/03/20 12:01:47;;;;;;;3.63;3.30;;;9.10;11.20;;;;;;5052347;28;20476;-69
2021/03/20 12:04:22;;;;;;;4.80;4.50;;;9.10;11.70;;;;;;5046060;28;20445;-73
2021/03/20 12:06:48;;;;;;;6.03;4.07;;;9.00;12.00;;;;;;5052540;28;20802;-71
2021/03/20 12:09:23;;;;;;;4.93;3.70;;;8.50;11.60;;;;;;5052143;28;20425;-69
2021/03/20 12:11:48;;;;;;;3.97;3.67;;;8.20;12.00;;;;;;5052038;28;20552;-66
2021/03/20 12:14:32;;;;;;;4.20;3.90;;;8.40;12.50;;;;;;5052092;28;20965;-72
2021/03/20 12:17:05;;;;;;;4.07;3.77;;;8.10;15.20;;;;;;5050859;28;20176;-71
2021/03/20 12:19:32;;;;;;;4.23;3.80;;;8.20;13.10;;;;;;5052105;28;20414;-70
2021/03/20 12:22:14;;;;;;;3.70;3.50;;;8.00;13.20;;;;;;5051940;28;20429;-71
2021/03/20 12:24:48;;;;;;;4.03;3.43;;;7.70;13.10;;;;;;5051559;28;21010;-73
2021/03/20 12:27:35;;;;;;;5.10;4.60;;;7.80;13.20;;;;;;5051722;28;20425;-72
2021/03/20 12:30:23;;;;;;;4.07;3.77;;;7.80;14.00;;;;;;5051914;28;20822;-71
2021/03/20 12:32:51;;;;;;;4.17;3.77;;;7.60;13.70;;;;;;5051697;28;20967;-72
2021/03/20 12:35:19;;;;;;;3.70;3.43;;;7.70;13.60;;;;;;5051505;28;20485;-72
2021/03/20 12:38:12;;;;;;;3.90;3.60;;;7.80;13.90;;;;;;5051421;28;20850;-71
2021/03/20 12:41:01;;;;;;;3.87;3.67;;;7.80;12.50;;;;;;5042764;28;20472;-71
2021/03/20 12:43:31;;;;;;;4.00;3.60;;;7.60;11.90;;;;;;5040555;28;20510;-72
2021/03/20 12:46:00;;;;;;;5.70;4.10;;;7.80;13.30;;;;;;5051509;28;20471;-71
2021/03/20 12:48:27;;;;;;;3.83;3.63;;;8.10;13.90;;;;;;5048998;28;20449;-72
2021/03/20 12:51:01;;;;;;;3.47;3.27;;;8.30;12.50;;;;;;5046851;28;20597;-73
2021/03/20 12:53:26;;;;;;;4.40;4.10;;;8.30;12.30;;;;;;5046987;28;20430;-67
2021/03/20 12:55:52;;;;;;;3.63;3.43;;;8.00;12.50;;;;;;5049016;28;20445;-71
2021/03/20 12:58:18;;;;;;;4.37;4.07;;;7.80;12.90;;;;;;5062956;28;20183;-72
2021/03/20 13:00:43;;;;;;;3.77;3.47;;;7.70;12.70;;;;;;5068411;28;20186;-67
2021/03/20 13:03:09;;;;;;;3.90;3.60;;;7.70;13.30;;;;;;5069565;28;20839;-68
2021/03/20 13:05:37;;;;;;;5.03;3.63;;;7.60;14.20;;;;;;5069373;28;20641;-68
2021/03/20 13:08:04;;;;;;;4.40;4.10;;;7.70;13.40;;;;;;5069382;28;20179;-69
2021/03/20 13:10:30;;;;;;;4.03;3.73;;;7.60;13.70;;;;;;5069451;28;20512;-69
2021/03/20 13:12:56;;;;;;;4.73;3.87;;;7.70;14.20;;;;;;5069030;28;20892;-68
2021/03/20 13:15:22;;;;;;;3.77;3.50;;;7.70;14.20;;;;;;5069282;28;20245;-70
2021/03/20 13:17:48;;;;;;;9.67;7.37;;;7.80;14.30;;;;;;5069185;28;20438;-69
2021/03/20 13:20:15;;;;;;;4.07;3.77;;;7.90;13.30;;;;;;5048326;28;20472;-71
2021/03/20 13:22:41;;;;;;;4.07;3.78;;;7.90;14.00;;;;;;5048078;28;20403;-69
2021/03/20 13:25:08;;;;;;;3.93;3.73;;;7.80;13.60;;;;;;5048605;28;20167;-71
2021/03/20 13:27:33;;;;;;;5.17;3.80;;;7.60;13.80;;;;;;5049762;28;20164;-70
2021/03/20 13:29:59;;;;;;;3.93;3.70;;;7.70;14.20;;;;;;5049787;28;20483;-69
2021/03/20 13:32:25;;;;;;;4.57;3.63;;;7.70;13.70;;;;;;5049558;28;20199;-70
2021/03/20 13:34:52;;;;;;;3.87;3.57;;;7.00;13.80;;;;;;5049295;28;20450;-71
2021/03/20 13:37:17;;;;;;;4.17;3.77;;;7.10;13.90;;;;;;5047974;28;20425;-71
2021/03/20 13:39:43;;;;;;;4.73;4.30;;;7.40;15.20;;;;;;5049476;28;20714;-69
2021/03/20 13:42:09;;;;;;;4.57;4.27;;;7.50;13.90;;;;;;5051285;28;20199;-69
2021/03/20 13:44:34;;;;;;;7.23;6.50;;;7.80;13.50;;;;;;5069565;28;20167;-68